createdAt,value
2022-08-02T00:01:19.428Z,19.76
2022-08-02T00:13:02.450Z,19.68
2022-08-02T00:15:29.464Z,19.58
2022-08-02T00:17:56.539Z,19.50
2022-08-02T00:20:23.589Z,19.45
2022-08-02T00:22:50.715Z,19.40
2022-08-02T00:25:17.824Z,19.41
2022-08-02T00:27:44.888Z,19.40
2022-08-02T00:30:12.239Z,19.41
2022-08-02T00:32:39.410Z,19.41
2022-08-02T00:35:06.807Z,19.38
2022-08-02T00:37:38.201Z,19.34
2022-08-02T00:40:05.598Z,19.25
2022-08-02T00:42:32.710Z,19.16
2022-08-02T00:44:59.764Z,19.09
2022-08-02T00:47:26.772Z,19.05
2022-08-02T00:49:53.806Z,19.03
2022-08-02T00:52:22.070Z,19.01
2022-08-02T00:54:49.301Z,18.99
2022-08-02T00:57:16.609Z,18.98
2022-08-02T00:59:43.713Z,19.01
2022-08-02T01:02:11.027Z,18.99
2022-08-02T01:04:38.346Z,18.95
2022-08-02T01:07:12.834Z,18.91
2022-08-02T01:09:41.756Z,18.79
2022-08-02T01:12:09.540Z,18.76
2022-08-02T01:14:37.166Z,18.77
2022-08-02T01:17:10.509Z,18.76
2022-08-02T01:19:47.473Z,18.67
2022-08-02T01:22:59.275Z,18.61
2022-08-02T01:25:34.211Z,18.55
2022-08-02T01:28:01.214Z,18.52
2022-08-02T01:30:29.932Z,18.49
2022-08-02T01:33:00.028Z,18.43
2022-08-02T01:35:29.269Z,18.36
2022-08-02T01:38:16.669Z,18.36
2022-08-02T01:40:45.186Z,18.38
2022-08-02T01:43:16.465Z,18.42
2022-08-02T01:45:44.752Z,18.39
2022-08-02T01:48:12.505Z,18.35
2022-08-02T01:50:41.118Z,18.24
2022-08-02T01:53:09.324Z,17.94
2022-08-02T01:55:57.697Z,17.88
2022-08-02T01:58:31.408Z,17.79
2022-08-02T02:00:59.946Z,17.76
2022-08-02T02:03:28.996Z,17.69
2022-08-02T02:05:57.591Z,17.70
2022-08-02T02:08:30.737Z,17.76
2022-08-02T02:12:14.110Z,17.82
2022-08-02T02:13:47.399Z,17.88
2022-08-02T02:16:15.732Z,17.93
2022-08-02T02:18:44.485Z,17.95
2022-08-02T02:21:13.570Z,17.98
2022-08-02T02:23:40.913Z,18.04
2022-08-02T02:26:10.662Z,18.04
2022-08-02T02:28:39.823Z,18.04
2022-08-02T02:31:07.834Z,18.03
2022-08-02T02:33:40.624Z,18.04
2022-08-02T02:36:08.861Z,18.02
2022-08-02T02:38:36.307Z,18.01
2022-08-02T02:41:05.239Z,18.02
2022-08-02T02:43:33.263Z,18.00
2022-08-02T02:46:01.814Z,18.03
2022-08-02T02:48:29.456Z,18.04
2022-08-02T02:50:57.340Z,18.06
2022-08-02T02:53:24.994Z,18.04
2022-08-02T02:56:01.898Z,18.05
2022-08-02T02:58:30.600Z,18.05
2022-08-02T03:01:16.602Z,18.06
2022-08-02T03:03:44.175Z,18.01
2022-08-02T03:06:15.743Z,17.98
2022-08-02T03:08:43.710Z,17.96
2022-08-02T03:11:11.197Z,17.97
2022-08-02T03:13:39.059Z,17.97
2022-08-02T03:16:06.806Z,17.94
2022-08-02T03:18:37.367Z,17.88
2022-08-02T03:21:05.593Z,17.83
2022-08-02T03:23:33.304Z,17.81
2022-08-02T03:26:00.704Z,17.80
2022-08-02T03:28:28.165Z,17.77
2022-08-02T03:30:55.395Z,17.75
2022-08-02T03:33:23.854Z,17.68
2022-08-02T03:35:52.116Z,17.58
2022-08-02T03:38:21.444Z,17.45
2022-08-02T03:40:48.523Z,17.43
2022-08-02T03:43:16.387Z,17.41
2022-08-02T03:45:44.714Z,17.46
2022-08-02T03:48:34.919Z,17.51
2022-08-02T03:51:02.634Z,17.53
2022-08-02T03:53:30.216Z,17.60
2022-08-02T03:55:57.660Z,17.60
2022-08-02T03:58:24.835Z,17.61
2022-08-02T04:00:53.593Z,17.53
2022-08-02T04:03:20.756Z,17.52
2022-08-02T04:06:00.852Z,17.58
2022-08-02T04:08:37.997Z,17.58
2022-08-02T04:14:16.282Z,17.62
2022-08-02T04:16:43.381Z,17.65
2022-08-02T04:19:15.036Z,17.65
2022-08-02T04:25:40.735Z,17.72
2022-08-02T04:28:16.966Z,17.67
2022-08-02T04:30:46.676Z,17.63
2022-08-02T04:36:31.594Z,17.69
2022-08-02T04:38:59.199Z,17.74
2022-08-02T04:42:10.582Z,17.77
2022-08-02T04:44:37.825Z,17.81
2022-08-02T04:47:06.891Z,17.86
2022-08-02T04:49:58.991Z,17.98
2022-08-02T04:52:26.100Z,18.15
2022-08-02T04:55:18.073Z,18.30
2022-08-02T04:57:55.936Z,18.48
2022-08-02T05:00:23.710Z,18.65
2022-08-02T05:02:52.503Z,18.79
2022-08-02T05:05:19.936Z,18.94
2022-08-02T05:07:46.999Z,19.13
2022-08-02T05:10:14.481Z,19.34
2022-08-02T05:12:41.864Z,19.52
2022-08-02T05:15:12.636Z,19.59
2022-08-02T05:20:46.026Z,19.92
2022-08-02T05:23:13.479Z,20.07
2022-08-02T05:25:40.523Z,20.18
2022-08-02T05:28:11.458Z,20.31
2022-08-02T05:30:42.692Z,20.51
2022-08-02T05:33:11.964Z,20.63
2022-08-02T05:35:38.977Z,20.85
2022-08-02T05:38:10.065Z,21.04
2022-08-02T05:40:37.614Z,21.10
2022-08-02T05:43:23.198Z,21.34
2022-08-02T05:45:52.460Z,21.55
2022-08-02T05:48:19.494Z,21.77
2022-08-02T05:50:48.987Z,22.07
2022-08-02T05:53:33.184Z,22.30
2022-08-02T05:56:09.330Z,22.37
2022-08-02T05:58:41.373Z,22.32
2022-08-02T06:01:11.297Z,22.50
2022-08-02T06:03:49.828Z,22.78
2022-08-02T06:06:20.705Z,22.93
2022-08-02T06:08:51.085Z,22.74
2022-08-02T06:11:43.291Z,22.83
2022-08-02T06:14:31.629Z,22.65
2022-08-02T06:16:59.528Z,22.76
2022-08-02T06:19:27.051Z,22.74
2022-08-02T06:22:33.146Z,22.86
2022-08-02T06:24:45.577Z,22.73
2022-08-02T06:27:13.707Z,22.86
2022-08-02T06:29:41.266Z,22.96
2022-08-02T06:32:09.785Z,23.01
2022-08-02T06:34:38.045Z,23.05
2022-08-02T06:37:34.575Z,23.15
2022-08-02T06:40:06.832Z,23.18
2022-08-02T06:42:43.016Z,23.25
2022-08-02T06:45:10.115Z,23.42
2022-08-02T06:47:37.183Z,23.49
2022-08-02T06:50:04.557Z,23.73
2022-08-02T06:52:32.016Z,23.93
2022-08-02T06:54:59.916Z,24.05
2022-08-02T06:57:27.458Z,24.01
2022-08-02T06:59:54.618Z,24.16
2022-08-02T07:02:22.172Z,24.26
2022-08-02T07:04:49.383Z,24.31
2022-08-02T07:07:19.308Z,24.28
2022-08-02T07:09:56.291Z,24.53
2022-08-02T07:12:28.616Z,24.73
2022-08-02T07:14:55.674Z,24.81
2022-08-02T07:17:22.780Z,25.11
2022-08-02T07:19:49.804Z,25.33
2022-08-02T07:22:18.710Z,25.39
2022-08-02T07:24:45.766Z,25.39
2022-08-02T07:27:13.425Z,25.45
2022-08-02T07:29:45.187Z,25.55
2022-08-02T07:32:21.227Z,25.65
2022-08-02T07:34:51.058Z,25.77
2022-08-02T07:37:52.998Z,25.85
2022-08-02T07:40:14.644Z,25.92
2022-08-02T07:42:45.320Z,25.80
2022-08-02T07:45:12.955Z,25.95
2022-08-02T07:47:40.377Z,26.17
2022-08-02T07:50:08.290Z,26.28
2022-08-02T07:52:35.511Z,26.03
2022-08-02T07:55:08.529Z,26.15
2022-08-02T07:57:35.851Z,26.27
2022-08-02T08:00:04.400Z,26.17
2022-08-02T08:05:35.127Z,26.34
2022-08-02T08:08:02.174Z,26.39
2022-08-02T08:10:29.272Z,26.53
2022-08-02T08:12:56.368Z,26.50
2022-08-02T08:15:23.474Z,26.53
2022-08-02T08:17:50.599Z,26.70
2022-08-02T08:20:17.636Z,26.84
2022-08-02T08:22:44.726Z,26.83
2022-08-02T08:25:11.770Z,27.04
2022-08-02T08:27:47.229Z,27.16
2022-08-02T08:30:14.445Z,27.03
2022-08-02T08:32:41.550Z,26.99
2022-08-02T08:35:08.740Z,27.26
2022-08-02T08:37:36.640Z,27.06
2022-08-02T08:40:13.261Z,27.17
2022-08-02T08:42:46.675Z,27.05
2022-08-02T08:45:13.734Z,27.30
2022-08-02T08:47:42.167Z,27.34
2022-08-02T08:50:14.827Z,27.44
2022-08-02T08:52:49.304Z,27.69
2022-08-02T08:55:16.919Z,27.99
2022-08-02T09:01:49.794Z,27.44
2022-08-02T09:04:18.931Z,27.19
2022-08-02T09:06:46.023Z,27.36
2022-08-02T09:09:13.466Z,27.71
2022-08-02T09:11:40.835Z,27.83
2022-08-02T09:14:07.848Z,27.97
2022-08-02T09:16:36.422Z,28.16
2022-08-02T09:19:23.476Z,27.98
2022-08-02T09:21:51.515Z,28.30
2022-08-02T09:24:20.378Z,28.61
2022-08-02T09:26:48.271Z,28.65
2022-08-02T09:29:15.946Z,28.92
2022-08-02T09:31:49.411Z,29.02
2022-08-02T09:34:19.913Z,28.96
2022-08-02T09:36:48.365Z,28.91
2022-08-02T09:39:23.716Z,28.91
2022-08-02T09:41:50.759Z,29.10
2022-08-02T09:44:17.784Z,28.84
2022-08-02T09:46:45.908Z,28.65
2022-08-02T09:49:17.061Z,28.65
2022-08-02T09:51:47.297Z,28.91
2022-08-02T09:54:25.598Z,29.15
2022-08-02T09:56:54.307Z,29.18
2022-08-02T09:59:22.921Z,29.34
2022-08-02T10:01:58.880Z,29.45
2022-08-02T10:04:52.394Z,29.78
2022-08-02T10:07:22.494Z,29.90
2022-08-02T10:09:51.898Z,29.91
2022-08-02T10:12:20.156Z,29.95
2022-08-02T10:14:52.140Z,30.01
2022-08-02T10:17:20.038Z,29.76
2022-08-02T10:20:01.248Z,29.73
2022-08-02T10:22:30.944Z,29.35
2022-08-02T10:24:58.065Z,29.59
2022-08-02T10:27:38.901Z,29.14
2022-08-02T10:30:15.954Z,29.45
2022-08-02T10:32:43.901Z,29.07
2022-08-02T10:35:20.001Z,28.94
2022-08-02T10:38:03.575Z,28.91
2022-08-02T10:40:50.521Z,28.78
2022-08-02T10:43:43.941Z,28.18
2022-08-02T10:46:29.884Z,28.44
2022-08-02T10:52:02.847Z,28.61
2022-08-02T10:54:35.017Z,28.32
2022-08-02T10:57:03.268Z,27.98
2022-08-02T10:59:36.990Z,28.14
2022-08-02T11:02:22.923Z,28.18
2022-08-02T11:04:50.034Z,28.33
2022-08-02T11:07:22.485Z,28.56
2022-08-02T11:10:11.822Z,28.58
2022-08-02T11:12:58.549Z,28.49
2022-08-02T11:15:25.603Z,28.38
2022-08-02T11:17:54.256Z,28.45
2022-08-02T11:20:41.313Z,28.66
2022-08-02T11:23:46.121Z,28.78
2022-08-02T11:26:32.709Z,28.70
2022-08-02T11:29:05.818Z,28.64
2022-08-02T11:34:59.173Z,28.66
2022-08-02T11:37:29.778Z,28.82
2022-08-02T11:39:56.845Z,28.65
2022-08-02T11:42:37.155Z,28.64
2022-08-02T11:45:05.415Z,28.55
2022-08-02T11:47:32.817Z,28.66
2022-08-02T11:50:07.008Z,28.38
2022-08-02T11:52:37.548Z,28.45
2022-08-02T11:58:41.844Z,28.48
2022-08-02T12:01:09.243Z,28.75
2022-08-02T12:03:37.840Z,28.73
2022-08-02T12:06:06.732Z,28.06
2022-08-02T12:08:38.304Z,28.11
2022-08-02T12:11:05.455Z,28.18
2022-08-02T12:13:45.569Z,28.47
2022-08-02T12:16:43.159Z,28.52
2022-08-02T12:19:19.520Z,28.63
2022-08-02T12:21:46.940Z,28.62
2022-08-02T12:24:14.343Z,28.42
2022-08-02T12:26:48.388Z,28.50
2022-08-02T12:29:15.429Z,28.53
2022-08-02T12:32:02.742Z,28.30
2022-08-02T12:34:32.311Z,28.32
2022-08-02T12:37:07.076Z,28.38
2022-08-02T12:39:46.713Z,28.50
2022-08-02T12:42:38.593Z,28.71
2022-08-02T12:45:07.308Z,28.75
2022-08-02T12:47:44.885Z,28.72
2022-08-02T12:50:11.976Z,28.87
2022-08-02T12:52:39.156Z,28.74
2022-08-02T12:55:18.300Z,28.72
2022-08-02T12:57:56.501Z,28.50
2022-08-02T13:00:25.086Z,28.43
2022-08-02T13:02:52.224Z,28.57
2022-08-02T13:05:19.632Z,28.56
2022-08-02T13:07:46.708Z,28.63
2022-08-02T13:10:13.904Z,28.71
2022-08-02T13:12:40.998Z,28.61
2022-08-02T13:15:12.493Z,29.00
2022-08-02T13:17:55.632Z,29.33
2022-08-02T13:20:22.662Z,28.99
2022-08-02T13:22:53.459Z,29.16
2022-08-02T13:25:45.633Z,29.50
2022-08-02T13:28:44.774Z,29.16
2022-08-02T13:31:43.567Z,29.23
2022-08-02T13:34:10.707Z,29.30
2022-08-02T13:36:37.837Z,29.31
2022-08-02T13:39:36.003Z,28.98
2022-08-02T13:42:03.151Z,29.00
2022-08-02T13:44:30.281Z,28.94
2022-08-02T13:46:57.477Z,29.13
2022-08-02T13:49:51.128Z,29.08
2022-08-02T13:52:17.747Z,29.24
2022-08-02T13:54:44.839Z,29.22
2022-08-02T13:57:11.889Z,29.37
2022-08-02T14:00:35.570Z,29.40
2022-08-02T14:03:05.875Z,29.21
2022-08-02T14:05:58.821Z,29.27
2022-08-02T14:12:06.519Z,29.35
2022-08-02T14:14:33.597Z,29.03
2022-08-02T14:17:01.947Z,28.99
2022-08-02T14:19:29.091Z,29.17
2022-08-02T14:22:10.472Z,29.02
2022-08-02T14:24:39.707Z,29.11
2022-08-02T14:27:09.539Z,28.96
2022-08-02T14:29:36.731Z,28.94
2022-08-02T14:32:03.845Z,29.10
2022-08-02T14:34:30.854Z,29.38
2022-08-02T14:36:59.674Z,29.60
2022-08-02T14:39:26.745Z,29.54
2022-08-02T14:41:58.092Z,29.38
2022-08-02T14:44:30.308Z,28.59
2022-08-02T14:46:57.523Z,28.40
2022-08-02T14:49:26.774Z,28.04
2022-08-02T14:51:54.877Z,27.92
2022-08-02T15:03:51.312Z,27.96
2022-08-02T15:06:18.524Z,28.22
2022-08-02T15:08:45.595Z,28.32
2022-08-02T15:11:12.763Z,28.06
2022-08-02T15:13:42.707Z,28.13
2022-08-02T15:16:10.027Z,27.77
2022-08-02T15:18:38.935Z,27.84
2022-08-02T15:21:37.270Z,27.76
2022-08-02T15:23:54.279Z,27.71
2022-08-02T15:30:59.078Z,27.30
2022-08-02T16:16:40.627Z,27.19
2022-08-02T16:19:45.774Z,27.17
2022-08-02T16:21:56.203Z,27.34
2022-08-02T16:24:23.539Z,27.28
2022-08-02T16:26:50.639Z,27.36
2022-08-02T16:29:19.699Z,27.37
2022-08-02T16:31:47.557Z,27.45
2022-08-02T16:34:15.462Z,27.18
2022-08-02T16:36:42.607Z,27.23
2022-08-02T16:39:09.632Z,27.21
2022-08-02T16:41:51.925Z,27.08
2022-08-02T16:44:29.252Z,27.06
2022-08-02T16:51:36.060Z,27.02
2022-08-02T16:54:03.087Z,27.01
2022-08-02T16:56:35.400Z,27.02
2022-08-02T16:59:02.493Z,27.00
2022-08-02T17:02:03.984Z,26.99
2022-08-02T17:23:04.134Z,26.73
2022-08-02T17:25:32.181Z,26.70
2022-08-02T17:28:01.945Z,26.63
2022-08-02T17:30:29.016Z,26.60
2022-08-02T17:32:57.613Z,26.61
2022-08-02T17:35:25.819Z,26.62
2022-08-02T17:38:10.645Z,26.50
2022-08-02T17:40:37.714Z,26.54
2022-08-02T17:43:14.621Z,26.59
2022-08-02T17:46:00.881Z,26.60
2022-08-02T17:48:50.173Z,26.60
2022-08-02T17:52:16.067Z,26.64
2022-08-02T17:54:09.859Z,26.66
2022-08-02T17:56:37.059Z,26.63
2022-08-02T17:59:22.271Z,26.55
2022-08-02T18:02:01.275Z,26.56
2022-08-02T18:04:31.089Z,26.55
2022-08-02T18:07:03.964Z,26.53
2022-08-02T18:09:31.985Z,26.49
2022-08-02T18:11:59.058Z,26.46
2022-08-02T18:14:26.500Z,26.42
2022-08-02T18:16:54.080Z,26.38
2022-08-02T18:19:21.271Z,26.32
2022-08-02T18:21:49.342Z,26.19
2022-08-02T18:24:16.446Z,26.08
2022-08-02T18:26:44.967Z,26.07
2022-08-02T18:29:13.905Z,25.93
2022-08-02T18:31:51.051Z,25.84
2022-08-02T18:34:19.549Z,25.81
2022-08-02T18:36:51.262Z,25.80
2022-08-02T18:39:18.349Z,25.79
2022-08-02T18:41:47.997Z,25.79
2022-08-02T18:44:18.821Z,25.78
2022-08-02T18:46:46.154Z,25.77
2022-08-02T18:49:16.554Z,25.73
2022-08-02T18:51:44.052Z,25.70
2022-08-02T18:54:11.233Z,25.65
2022-08-02T18:56:39.112Z,25.51
2022-08-02T18:59:07.422Z,25.41
2022-08-02T19:05:11.811Z,25.19
2022-08-02T19:10:29.303Z,24.92
2022-08-02T19:12:56.455Z,24.93
2022-08-02T19:15:23.659Z,24.81
2022-08-02T19:17:55.257Z,24.81
2022-08-02T19:20:25.739Z,24.81
2022-08-02T19:22:53.624Z,24.68
2022-08-02T19:25:21.440Z,24.64
2022-08-02T19:27:55.185Z,24.50
2022-08-02T19:30:25.660Z,24.34
2022-08-02T19:32:58.400Z,24.33
2022-08-02T19:35:30.954Z,24.32
2022-08-02T19:38:11.312Z,24.33
2022-08-02T19:40:44.024Z,24.26
2022-08-02T19:44:26.938Z,24.15
2022-08-02T19:46:00.295Z,24.13
2022-08-02T19:48:28.307Z,24.13
2022-08-02T19:56:03.651Z,24.11
2022-08-02T19:58:31.131Z,24.09
2022-08-02T20:00:59.676Z,24.02
2022-08-02T20:03:52.114Z,24.02
2022-08-02T20:06:13.863Z,24.00
2022-08-02T20:09:47.069Z,23.99
2022-08-02T20:12:26.655Z,23.76
2022-08-02T20:14:56.264Z,23.75
2022-08-02T20:17:25.022Z,23.66
2022-08-02T20:19:54.777Z,23.55
2022-08-02T20:22:21.965Z,23.44
2022-08-02T20:24:49.002Z,23.37
2022-08-02T20:27:21.781Z,23.33
2022-08-02T20:30:16.451Z,23.27
2022-08-02T20:32:43.440Z,23.23
2022-08-02T20:35:19.952Z,23.25
2022-08-02T20:38:01.421Z,23.24
2022-08-02T20:40:30.197Z,23.15
2022-08-02T20:42:58.103Z,22.93
2022-08-02T20:45:25.246Z,22.80
2022-08-02T20:48:51.702Z,22.53
2022-08-02T20:51:19.400Z,22.43
2022-08-02T20:54:00.616Z,22.41
2022-08-02T20:56:29.630Z,22.41
2022-08-02T20:59:03.758Z,22.45
2022-08-02T21:01:36.772Z,22.49
2022-08-02T21:04:04.558Z,22.53
2022-08-02T21:06:31.657Z,22.51
2022-08-02T22:58:46.604Z,25.39
2022-08-02T22:58:57.897Z,24.87
